Aviation Digital Data Service (ADDS)

Output produced by METARs form (0919 UTC 23 July 2019)
found at http://www.aviationweather.gov/metar/data/
 
METAR text: ZGHA 230900Z 18004MPS 9999 FEW040 33/24 Q1000 NOSIG
Conditions at: ZGHA (HUANGHUA/CHANGSH, CN) observed 0900 UTC 23 July 2019
Temperature: 33.0°C (91°F)
Dewpoint: 24.0°C (75°F) [RH = 59%]
Pressure (altimeter): 29.53 inches Hg (1000.0 mb)
Winds: from the S (180 degrees) at 9 MPH (8 knots; 4.1 m/s)
Visibility: 6 or more miles (10+ km)
Ceiling: at least 12,000 feet AGL
Clouds: few clouds at 4000 feet AGL
Weather: no significant weather observed at this time

METAR text: ZGHA 230800Z 19004MPS 170V230 9999 FEW040TCU FEW040 33/24 Q1000 NOSIG
Conditions at: ZGHA (HUANGHUA/CHANGSH, CN) observed 0800 UTC 23 July 2019
Temperature: 33.0°C (91°F)
Dewpoint: 24.0°C (75°F) [RH = 59%]
Pressure (altimeter): 29.53 inches Hg (1000.0 mb)
Winds: from the S (190 degrees) at 9 MPH (8 knots; 4.1 m/s)
Visibility: 6 or more miles (10+ km)
Ceiling: at least 12,000 feet AGL
Clouds: few clouds at 4000 feet AGL
few clouds at 4000 feet AGL
Weather: no significant weather observed at this time

METAR text: ZGHA 230700Z 20005MPS 9999 SCT040 35/24 Q1001 NOSIG
Conditions at: ZGHA (HUANGHUA/CHANGSH, CN) observed 0700 UTC 23 July 2019
Temperature: 35.0°C (95°F)
Dewpoint: 24.0°C (75°F) [RH = 53%]
Pressure (altimeter): 29.56 inches Hg (1001.0 mb)
Winds: from the SSW (200 degrees) at 12 MPH (10 knots; 5.1 m/s)
Visibility: 6 or more miles (10+ km)
Ceiling: at least 12,000 feet AGL
Clouds: scattered clouds at 4000 feet AGL
Weather: no significant weather observed at this time

METAR text: ZGHA 230600Z 19004MPS 9999 SCT040 34/23 Q1001 NOSIG
Conditions at: ZGHA (HUANGHUA/CHANGSH, CN) observed 0600 UTC 23 July 2019
Temperature: 34.0°C (93°F)
Dewpoint: 23.0°C (73°F) [RH = 53%]
Pressure (altimeter): 29.56 inches Hg (1001.0 mb)
Winds: from the S (190 degrees) at 9 MPH (8 knots; 4.1 m/s)
Visibility: 6 or more miles (10+ km)
Ceiling: at least 12,000 feet AGL
Clouds: scattered clouds at 4000 feet AGL
Weather: no significant weather observed at this time

METAR text: ZGHA 230500Z 20005MPS 9999 SCT050 33/24 Q1002 NOSIG
Conditions at: ZGHA (HUANGHUA/CHANGSH, CN) observed 0500 UTC 23 July 2019
Temperature: 33.0°C (91°F)
Dewpoint: 24.0°C (75°F) [RH = 59%]
Pressure (altimeter): 29.59 inches Hg (1002.0 mb)
Winds: from the SSW (200 degrees) at 12 MPH (10 knots; 5.1 m/s)
Visibility: 6 or more miles (10+ km)
Ceiling: at least 12,000 feet AGL
Clouds: scattered clouds at 5000 feet AGL
Weather: no significant weather observed at this time

METAR text: ZGHA 230400Z 20005MPS 9999 SCT050 33/23 Q1003 NOSIG
Conditions at: ZGHA (HUANGHUA/CHANGSH, CN) observed 0400 UTC 23 July 2019
Temperature: 33.0°C (91°F)
Dewpoint: 23.0°C (73°F) [RH = 56%]
Pressure (altimeter): 29.62 inches Hg (1003.0 mb)
Winds: from the SSW (200 degrees) at 12 MPH (10 knots; 5.1 m/s)
Visibility: 6 or more miles (10+ km)
Ceiling: at least 12,000 feet AGL
Clouds: scattered clouds at 5000 feet AGL
Weather: no significant weather observed at this time

METAR text: ZGHA 230300Z 19005MPS CAVOK 32/24 Q1003 NOSIG
Conditions at: ZGHA (HUANGHUA/CHANGSH, CN) observed 0300 UTC 23 July 2019
Temperature: 32.0°C (90°F)
Dewpoint: 24.0°C (75°F) [RH = 63%]
Pressure (altimeter): 29.62 inches Hg (1003.0 mb)
Winds: from the S (190 degrees) at 12 MPH (10 knots; 5.1 m/s)
Visibility: 6 or more miles (10+ km)
Ceiling: ceiling and visibility are OK
Clouds: unknown
Weather: no significant weather observed at this time

METAR text: ZGHA 230200Z 19005MPS CAVOK 31/24 Q1003 NOSIG
Conditions at: ZGHA (HUANGHUA/CHANGSH, CN) observed 0200 UTC 23 July 2019
Temperature: 31.0°C (88°F)
Dewpoint: 24.0°C (75°F) [RH = 66%]
Pressure (altimeter): 29.62 inches Hg (1003.0 mb)
Winds: from the S (190 degrees) at 12 MPH (10 knots; 5.1 m/s)
Visibility: 6 or more miles (10+ km)
Ceiling: ceiling and visibility are OK
Clouds: unknown
Weather: no significant weather observed at this time

METAR text: ZGHA 230100Z 18005MPS 160V220 CAVOK 31/24 Q1002 NOSIG
Conditions at: ZGHA (HUANGHUA/CHANGSH, CN) observed 0100 UTC 23 July 2019
Temperature: 31.0°C (88°F)
Dewpoint: 24.0°C (75°F) [RH = 66%]
Pressure (altimeter): 29.59 inches Hg (1002.0 mb)
Winds: from the S (180 degrees) at 12 MPH (10 knots; 5.1 m/s)
Visibility: 6 or more miles (10+ km)
Ceiling: ceiling and visibility are OK
Clouds: unknown
Weather: no significant weather observed at this time

METAR text: ZGHA 230000Z 17005MPS CAVOK 30/24 Q1002 NOSIG
Conditions at: ZGHA (HUANGHUA/CHANGSH, CN) observed 0000 UTC 23 July 2019
Temperature: 30.0°C (86°F)
Dewpoint: 24.0°C (75°F) [RH = 70%]
Pressure (altimeter): 29.59 inches Hg (1002.0 mb)
Winds: from the S (170 degrees) at 12 MPH (10 knots; 5.1 m/s)
Visibility: 6 or more miles (10+ km)
Ceiling: ceiling and visibility are OK
Clouds: unknown
Weather: no significant weather observed at this time

METAR text: ZGHA 222300Z 16004MPS CAVOK 28/24 Q1002 NOSIG
Conditions at: ZGHA (HUANGHUA/CHANGSH, CN) observed 2300 UTC 22 July 2019
Temperature: 28.0°C (82°F)
Dewpoint: 24.0°C (75°F) [RH = 79%]
Pressure (altimeter): 29.59 inches Hg (1002.0 mb)
Winds: from the SSE (160 degrees) at 9 MPH (8 knots; 4.1 m/s)
Visibility: 6 or more miles (10+ km)
Ceiling: ceiling and visibility are OK
Clouds: unknown
Weather: no significant weather observed at this time

METAR text: ZGHA 222200Z 17003MPS CAVOK 27/24 Q1002 NOSIG
Conditions at: ZGHA (HUANGHUA/CHANGSH, CN) observed 2200 UTC 22 July 2019
Temperature: 27.0°C (81°F)
Dewpoint: 24.0°C (75°F) [RH = 84%]
Pressure (altimeter): 29.59 inches Hg (1002.0 mb)
Winds: from the S (170 degrees) at 7 MPH (6 knots; 3.1 m/s)
Visibility: 6 or more miles (10+ km)
Ceiling: ceiling and visibility are OK
Clouds: unknown
Weather: no significant weather observed at this time

METAR text: ZGHA 222100Z 19003MPS CAVOK 27/25 Q1002 NOSIG
Conditions at: ZGHA (HUANGHUA/CHANGSH, CN) observed 2100 UTC 22 July 2019
Temperature: 27.0°C (81°F)
Dewpoint: 25.0°C (77°F) [RH = 89%]
Pressure (altimeter): 29.59 inches Hg (1002.0 mb)
Winds: from the S (190 degrees) at 7 MPH (6 knots; 3.1 m/s)
Visibility: 6 or more miles (10+ km)
Ceiling: ceiling and visibility are OK
Clouds: unknown
Weather: no significant weather observed at this time

METAR text: ZGHA 222000Z 20003MPS CAVOK 27/25 Q1001 NOSIG
Conditions at: ZGHA (HUANGHUA/CHANGSH, CN) observed 2000 UTC 22 July 2019
Temperature: 27.0°C (81°F)
Dewpoint: 25.0°C (77°F) [RH = 89%]
Pressure (altimeter): 29.56 inches Hg (1001.0 mb)
Winds: from the SSW (200 degrees) at 7 MPH (6 knots; 3.1 m/s)
Visibility: 6 or more miles (10+ km)
Ceiling: ceiling and visibility are OK
Clouds: unknown
Weather: no significant weather observed at this time

METAR text: ZGHA 221900Z 19003MPS CAVOK 28/25 Q1001 NOSIG
Conditions at: ZGHA (HUANGHUA/CHANGSH, CN) observed 1900 UTC 22 July 2019
Temperature: 28.0°C (82°F)
Dewpoint: 25.0°C (77°F) [RH = 84%]
Pressure (altimeter): 29.56 inches Hg (1001.0 mb)
Winds: from the S (190 degrees) at 7 MPH (6 knots; 3.1 m/s)
Visibility: 6 or more miles (10+ km)
Ceiling: ceiling and visibility are OK
Clouds: unknown
Weather: no significant weather observed at this time

METAR text: ZGHA 221800Z 17003MPS CAVOK 28/25 Q1001 NOSIG
Conditions at: ZGHA (HUANGHUA/CHANGSH, CN) observed 1800 UTC 22 July 2019
Temperature: 28.0°C (82°F)
Dewpoint: 25.0°C (77°F) [RH = 84%]
Pressure (altimeter): 29.56 inches Hg (1001.0 mb)
Winds: from the S (170 degrees) at 7 MPH (6 knots; 3.1 m/s)
Visibility: 6 or more miles (10+ km)
Ceiling: ceiling and visibility are OK
Clouds: unknown
Weather: no significant weather observed at this time

METAR text: ZGHA 221700Z 20002MPS 170V240 CAVOK 28/25 Q1002 NOSIG
Conditions at: ZGHA (HUANGHUA/CHANGSH, CN) observed 1700 UTC 22 July 2019
Temperature: 28.0°C (82°F)
Dewpoint: 25.0°C (77°F) [RH = 84%]
Pressure (altimeter): 29.59 inches Hg (1002.0 mb)
Winds: from the SSW (200 degrees) at 5 MPH (4 knots; 2.1 m/s)
Visibility: 6 or more miles (10+ km)
Ceiling: ceiling and visibility are OK
Clouds: unknown
Weather: no significant weather observed at this time

METAR text: ZGHA 221600Z 21002MPS 190V280 CAVOK 29/25 Q1002 NOSIG
Conditions at: ZGHA (HUANGHUA/CHANGSH, CN) observed 1600 UTC 22 July 2019
Temperature: 29.0°C (84°F)
Dewpoint: 25.0°C (77°F) [RH = 79%]
Pressure (altimeter): 29.59 inches Hg (1002.0 mb)
Winds: from the SSW (210 degrees) at 5 MPH (4 knots; 2.1 m/s)
Visibility: 6 or more miles (10+ km)
Ceiling: ceiling and visibility are OK
Clouds: unknown
Weather: no significant weather observed at this time

METAR text: ZGHA 221500Z 17003MPS CAVOK 29/25 Q1002 NOSIG
Conditions at: ZGHA (HUANGHUA/CHANGSH, CN) observed 1500 UTC 22 July 2019
Temperature: 29.0°C (84°F)
Dewpoint: 25.0°C (77°F) [RH = 79%]
Pressure (altimeter): 29.59 inches Hg (1002.0 mb)
Winds: from the S (170 degrees) at 7 MPH (6 knots; 3.1 m/s)
Visibility: 6 or more miles (10+ km)
Ceiling: ceiling and visibility are OK
Clouds: unknown
Weather: no significant weather observed at this time

METAR text: ZGHA 221400Z 17004MPS 150V220 CAVOK 30/25 Q1002 NOSIG
Conditions at: ZGHA (HUANGHUA/CHANGSH, CN) observed 1400 UTC 22 July 2019
Temperature: 30.0°C (86°F)
Dewpoint: 25.0°C (77°F) [RH = 75%]
Pressure (altimeter): 29.59 inches Hg (1002.0 mb)
Winds: from the S (170 degrees) at 9 MPH (8 knots; 4.1 m/s)
Visibility: 6 or more miles (10+ km)
Ceiling: ceiling and visibility are OK
Clouds: unknown
Weather: no significant weather observed at this time

METAR text: ZGHA 221300Z 16004MPS CAVOK 30/25 Q1002 NOSIG
Conditions at: ZGHA (HUANGHUA/CHANGSH, CN) observed 1300 UTC 22 July 2019
Temperature: 30.0°C (86°F)
Dewpoint: 25.0°C (77°F) [RH = 75%]
Pressure (altimeter): 29.59 inches Hg (1002.0 mb)
Winds: from the SSE (160 degrees) at 9 MPH (8 knots; 4.1 m/s)
Visibility: 6 or more miles (10+ km)
Ceiling: ceiling and visibility are OK
Clouds: unknown
Weather: no significant weather observed at this time

METAR text: ZGHA 221200Z 16006MPS CAVOK 31/25 Q1001 NOSIG
Conditions at: ZGHA (HUANGHUA/CHANGSH, CN) observed 1200 UTC 22 July 2019
Temperature: 31.0°C (88°F)
Dewpoint: 25.0°C (77°F) [RH = 71%]
Pressure (altimeter): 29.56 inches Hg (1001.0 mb)
Winds: from the SSE (160 degrees) at 14 MPH (12 knots; 6.2 m/s)
Visibility: 6 or more miles (10+ km)
Ceiling: ceiling and visibility are OK
Clouds: unknown
Weather: no significant weather observed at this time

METAR text: ZGHA 221100Z 18004MPS 150V220 9999 FEW040 32/26 Q1000 NOSIG
Conditions at: ZGHA (HUANGHUA/CHANGSH, CN) observed 1100 UTC 22 July 2019
Temperature: 32.0°C (90°F)
Dewpoint: 26.0°C (79°F) [RH = 71%]
Pressure (altimeter): 29.53 inches Hg (1000.0 mb)
Winds: from the S (180 degrees) at 9 MPH (8 knots; 4.1 m/s)
Visibility: 6 or more miles (10+ km)
Ceiling: at least 12,000 feet AGL
Clouds: few clouds at 4000 feet AGL
Weather: no significant weather observed at this time

METAR text: ZGHA 221000Z 17005MPS 9999 FEW040 33/25 Q0999 NOSIG
Conditions at: ZGHA (HUANGHUA/CHANGSH, CN) observed 1000 UTC 22 July 2019
Temperature: 33.0°C (91°F)
Dewpoint: 25.0°C (77°F) [RH = 63%]
Pressure (altimeter): 29.50 inches Hg (999.0 mb)
Winds: from the S (170 degrees) at 12 MPH (10 knots; 5.1 m/s)
Visibility: 6 or more miles (10+ km)
Ceiling: at least 12,000 feet AGL
Clouds: few clouds at 4000 feet AGL
Weather: no significant weather observed at this time

METAR text: ZGHA 220900Z 19003MPS 9999 SCT040 35/25 Q0999 NOSIG
Conditions at: ZGHA (HUANGHUA/CHANGSH, CN) observed 0900 UTC 22 July 2019
Temperature: 35.0°C (95°F)
Dewpoint: 25.0°C (77°F) [RH = 56%]
Pressure (altimeter): 29.50 inches Hg (999.0 mb)
Winds: from the S (190 degrees) at 7 MPH (6 knots; 3.1 m/s)
Visibility: 6 or more miles (10+ km)
Ceiling: at least 12,000 feet AGL
Clouds: scattered clouds at 4000 feet AGL
Weather: no significant weather observed at this time

METAR text: ZGHA 220800Z 21003MPS 160V260 9999 SCT040 36/24 Q0999 NOSIG
Conditions at: ZGHA (HUANGHUA/CHANGSH, CN) observed 0800 UTC 22 July 2019
Temperature: 36.0°C (97°F)
Dewpoint: 24.0°C (75°F) [RH = 50%]
Pressure (altimeter): 29.50 inches Hg (999.0 mb)
Winds: from the SSW (210 degrees) at 7 MPH (6 knots; 3.1 m/s)
Visibility: 6 or more miles (10+ km)
Ceiling: at least 12,000 feet AGL
Clouds: scattered clouds at 4000 feet AGL
Weather: no significant weather observed at this time

METAR text: ZGHA 220700Z 22003MPS 160V250 9999 SCT040 36/25 Q1000 NOSIG
Conditions at: ZGHA (HUANGHUA/CHANGSH, CN) observed 0700 UTC 22 July 2019
Temperature: 36.0°C (97°F)
Dewpoint: 25.0°C (77°F) [RH = 53%]
Pressure (altimeter): 29.53 inches Hg (1000.0 mb)
Winds: from the SW (220 degrees) at 7 MPH (6 knots; 3.1 m/s)
Visibility: 6 or more miles (10+ km)
Ceiling: at least 12,000 feet AGL
Clouds: scattered clouds at 4000 feet AGL
Weather: no significant weather observed at this time

METAR text: ZGHA 220600Z 19003MPS 150V260 9999 SCT040 35/24 Q1000 NOSIG
Conditions at: ZGHA (HUANGHUA/CHANGSH, CN) observed 0600 UTC 22 July 2019
Temperature: 35.0°C (95°F)
Dewpoint: 24.0°C (75°F) [RH = 53%]
Pressure (altimeter): 29.53 inches Hg (1000.0 mb)
Winds: from the S (190 degrees) at 7 MPH (6 knots; 3.1 m/s)
Visibility: 6 or more miles (10+ km)
Ceiling: at least 12,000 feet AGL
Clouds: scattered clouds at 4000 feet AGL
Weather: no significant weather observed at this time

METAR text: ZGHA 220500Z 20003MPS 160V240 9999 BKN033 35/24 Q1002 NOSIG
Conditions at: ZGHA (HUANGHUA/CHANGSH, CN) observed 0500 UTC 22 July 2019
Temperature: 35.0°C (95°F)
Dewpoint: 24.0°C (75°F) [RH = 53%]
Pressure (altimeter): 29.59 inches Hg (1002.0 mb)
Winds: from the SSW (200 degrees) at 7 MPH (6 knots; 3.1 m/s)
Visibility: 6 or more miles (10+ km)
Ceiling: 3300 feet AGL
Clouds: broken clouds at 3300 feet AGL
Weather: no significant weather observed at this time

METAR text: ZGHA 220400Z 20002MPS 150V280 9999 BKN030 34/25 Q1002 NOSIG
Conditions at: ZGHA (HUANGHUA/CHANGSH, CN) observed 0400 UTC 22 July 2019
Temperature: 34.0°C (93°F)
Dewpoint: 25.0°C (77°F) [RH = 60%]
Pressure (altimeter): 29.59 inches Hg (1002.0 mb)
Winds: from the SSW (200 degrees) at 5 MPH (4 knots; 2.1 m/s)
Visibility: 6 or more miles (10+ km)
Ceiling: 3000 feet AGL
Clouds: broken clouds at 3000 feet AGL
Weather: no significant weather observed at this time

METAR text: ZGHA 220300Z 21003MPS 180V240 9999 BKN027 33/25 Q1003 NOSIG
Conditions at: ZGHA (HUANGHUA/CHANGSH, CN) observed 0300 UTC 22 July 2019
Temperature: 33.0°C (91°F)
Dewpoint: 25.0°C (77°F) [RH = 63%]
Pressure (altimeter): 29.62 inches Hg (1003.0 mb)
Winds: from the SSW (210 degrees) at 7 MPH (6 knots; 3.1 m/s)
Visibility: 6 or more miles (10+ km)
Ceiling: 2700 feet AGL
Clouds: broken clouds at 2700 feet AGL
Weather: no significant weather observed at this time

METAR text: ZGHA 220200Z 17004MPS 140V210 CAVOK 32/25 Q1003 NOSIG
Conditions at: ZGHA (HUANGHUA/CHANGSH, CN) observed 0200 UTC 22 July 2019
Temperature: 32.0°C (90°F)
Dewpoint: 25.0°C (77°F) [RH = 67%]
Pressure (altimeter): 29.62 inches Hg (1003.0 mb)
Winds: from the S (170 degrees) at 9 MPH (8 knots; 4.1 m/s)
Visibility: 6 or more miles (10+ km)
Ceiling: ceiling and visibility are OK
Clouds: unknown
Weather: no significant weather observed at this time

METAR text: ZGHA 220100Z 18004MPS 150V240 CAVOK 30/24 Q1003 NOSIG
Conditions at: ZGHA (HUANGHUA/CHANGSH, CN) observed 0100 UTC 22 July 2019
Temperature: 30.0°C (86°F)
Dewpoint: 24.0°C (75°F) [RH = 70%]
Pressure (altimeter): 29.62 inches Hg (1003.0 mb)
Winds: from the S (180 degrees) at 9 MPH (8 knots; 4.1 m/s)
Visibility: 6 or more miles (10+ km)
Ceiling: ceiling and visibility are OK
Clouds: unknown
Weather: no significant weather observed at this time

METAR text: ZGHA 220000Z 18002MPS 150V210 CAVOK 29/25 Q1003 NOSIG
Conditions at: ZGHA (HUANGHUA/CHANGSH, CN) observed 0000 UTC 22 July 2019
Temperature: 29.0°C (84°F)
Dewpoint: 25.0°C (77°F) [RH = 79%]
Pressure (altimeter): 29.62 inches Hg (1003.0 mb)
Winds: from the S (180 degrees) at 5 MPH (4 knots; 2.1 m/s)
Visibility: 6 or more miles (10+ km)
Ceiling: ceiling and visibility are OK
Clouds: unknown
Weather: no significant weather observed at this time

METAR text: ZGHA 212300Z 20001MPS 9000 NSC 26/25 Q1003 NOSIG
Conditions at: ZGHA (HUANGHUA/CHANGSH, CN) observed 2300 UTC 21 July 2019
Temperature: 26.0°C (79°F)
Dewpoint: 25.0°C (77°F) [RH = 94%]
Pressure (altimeter): 29.62 inches Hg (1003.0 mb)
Winds: from the SSW (200 degrees) at 2 MPH (2 knots; 1.0 m/s)
Visibility: 6 miles ( 9 km)
Ceiling: at least 12,000 feet AGL
Clouds: sky clear below 12,000 feet AGL
Weather: no significant weather observed at this time

METAR text: ZGHA 212200Z 18002MPS 4500 BR NSC 26/25 Q1003 NOSIG
Conditions at: ZGHA (HUANGHUA/CHANGSH, CN) observed 2200 UTC 21 July 2019
Temperature: 26.0°C (79°F)
Dewpoint: 25.0°C (77°F) [RH = 94%]
Pressure (altimeter): 29.62 inches Hg (1003.0 mb)
Winds: from the S (180 degrees) at 5 MPH (4 knots; 2.1 m/s)
Visibility: 2.80 miles (4.51 km)
Ceiling: at least 12,000 feet AGL
Clouds: sky clear below 12,000 feet AGL
Weather: BR  (mist)

Forecast for: ZGHA (HUANGHUA/CHANGSH, CN)
Text: TAF ZGHA 230201Z 2306/2406 18006MPS 6000 BKN040 TX37/2306Z TN28/2322Z
Forecast period: 0600 UTC 23 July 2019 to 0600 UTC 24 July 2019
Forecast type: FROM: standard forecast or significant change
Winds: from the S (180 degrees) at 14 MPH (12 knots; 6.2 m/s)
Visibility: 4 miles (6 km)
Ceiling: 4000 feet AGL
Clouds: broken clouds at 4000 feet AGL
Weather: no significant weather forecast for this period
Text: TEMPO 2320/2323 SHRA SCT011 FEW040CB BKN040
Forecast period: 2000 to 2300 UTC 23 July 2019
Forecast type: TEMPORARY: The following changes expected for less than half the time period
Visibility: missing
Ceiling: 4000 feet AGL
Clouds: scattered clouds at 1100 feet AGL
few clouds at 4000 feet AGL
broken clouds at 4000 feet AGL
Weather: SHRA  (rain showers)